createdAt,value
2018-09-18T00:00:23.162Z,98495.63
2018-09-18T00:02:52.657Z,98496.77
2018-09-18T00:05:22.070Z,98499.02
2018-09-18T00:07:51.564Z,98500.75
2018-09-18T00:10:21.068Z,98498.05
2018-09-18T00:12:50.367Z,98495.55
2018-09-18T00:15:19.871Z,98499.37
2018-09-18T00:17:49.376Z,98495.14
2018-09-18T00:20:18.778Z,98494.06
2018-09-18T00:22:48.174Z,98491.91
2018-09-18T00:25:17.684Z,98487.59
2018-09-18T00:27:47.189Z,98479.66
2018-09-18T00:30:16.592Z,98480.84
2018-09-18T00:32:46.096Z,98476.77
2018-09-18T00:35:15.497Z,98476.55
2018-09-18T00:37:45.002Z,98474.48
2018-09-18T00:40:14.506Z,98477.95
2018-09-18T00:42:43.805Z,98478.55
2018-09-18T00:45:13.515Z,98475.98
2018-09-18T00:47:43.019Z,98476.91
2018-09-18T00:50:12.419Z,98472.30
2018-09-18T00:52:41.924Z,98467.73
2018-09-18T00:55:11.326Z,98461.61
2018-09-18T00:57:40.843Z,98461.37
2018-09-18T01:00:10.234Z,98458.22
2018-09-18T01:02:39.743Z,98456.77
2018-09-18T01:05:09.250Z,98456.27
2018-09-18T01:07:38.770Z,98452.63
2018-09-18T01:10:08.364Z,98445.55
2018-09-18T01:12:37.758Z,98444.70
2018-09-18T01:15:07.281Z,98446.23
2018-09-18T01:17:36.765Z,98444.23
2018-09-18T01:20:06.372Z,98441.83
2018-09-18T01:22:35.873Z,98447.59
2018-09-18T01:25:05.484Z,98443.52
2018-09-18T01:27:34.781Z,98450.38
2018-09-18T01:30:04.663Z,98450.83
2018-09-18T01:32:34.222Z,98451.72
2018-09-18T01:35:03.747Z,98455.58
2018-09-18T01:37:33.454Z,98450.17
2018-09-18T01:40:03.019Z,98455.06
2018-09-18T01:42:32.352Z,98457.83
2018-09-18T01:45:01.751Z,98457.33
2018-09-18T01:47:31.181Z,98456.60
2018-09-18T01:50:00.630Z,98455.95
2018-09-18T01:52:30.127Z,98448.03
2018-09-18T01:54:59.432Z,98445.71
2018-09-18T01:57:28.833Z,98441.42
2018-09-18T01:59:58.236Z,98445.40
2018-09-18T02:02:27.740Z,98444.90
2018-09-18T02:04:57.141Z,98442.59
2018-09-18T02:07:26.648Z,98446.00
2018-09-18T02:09:56.052Z,98446.23
2018-09-18T02:12:25.555Z,98446.23
2018-09-18T02:14:54.864Z,98445.11
2018-09-18T02:17:24.254Z,98437.86
2018-09-18T02:19:53.656Z,98443.20
2018-09-18T02:22:23.060Z,98438.07
2018-09-18T02:24:52.359Z,98439.95
2018-09-18T02:27:21.757Z,98436.25
2018-09-18T02:29:51.160Z,98441.15
2018-09-18T02:32:20.561Z,98441.47
2018-09-18T02:34:49.964Z,98444.60
2018-09-18T02:37:19.366Z,98442.95
2018-09-18T02:39:48.973Z,98435.91
2018-09-18T02:42:18.970Z,98439.26
2018-09-18T02:44:48.392Z,98435.41
2018-09-18T02:47:18.510Z,98435.24
2018-09-18T02:49:48.321Z,98434.48
2018-09-18T02:52:17.721Z,98440.49
2018-09-18T02:54:47.125Z,98441.37
2018-09-18T02:57:16.726Z,98438.73
2018-09-18T02:59:46.132Z,98434.33
2018-09-18T03:02:15.543Z,98434.99
2018-09-18T03:04:44.936Z,98430.79
2018-09-18T03:07:14.335Z,98433.59
2018-09-18T03:09:43.741Z,98437.18
2018-09-18T03:12:13.143Z,98439.84
2018-09-18T03:14:42.443Z,98437.80
2018-09-18T03:17:11.846Z,98434.17
2018-09-18T03:19:41.246Z,98426.00
2018-09-18T03:22:10.649Z,98426.13
2018-09-18T03:24:39.949Z,98422.29
2018-09-18T03:27:09.349Z,98427.23
2018-09-18T03:29:38.753Z,98425.80
2018-09-18T03:32:08.154Z,98421.96
2018-09-18T03:34:37.457Z,98421.30
2018-09-18T03:37:06.783Z,98423.08
2018-09-18T03:39:36.156Z,98419.91
2018-09-18T03:42:05.615Z,98417.44
2018-09-18T03:44:35.164Z,98411.27
2018-09-18T03:47:04.655Z,98420.94
2018-09-18T03:49:34.070Z,98420.94
2018-09-18T03:52:03.526Z,98421.27
2018-09-18T03:54:32.976Z,98423.20
2018-09-18T03:57:02.480Z,98422.09
2018-09-18T03:59:31.985Z,98421.19
2018-09-18T04:02:01.489Z,98422.42
2018-09-18T04:04:30.891Z,98420.90
2018-09-18T04:07:00.498Z,98426.95
2018-09-18T04:09:29.900Z,98422.17
2018-09-18T04:11:59.302Z,98421.77
2018-09-18T04:14:28.708Z,98423.65
2018-09-18T04:16:58.208Z,98423.19
2018-09-18T04:19:27.610Z,98422.83
2018-09-18T04:21:57.113Z,98424.26
2018-09-18T04:24:26.516Z,98423.41
2018-09-18T04:26:55.918Z,98423.77
2018-09-18T04:29:25.429Z,98420.48
2018-09-18T04:31:54.926Z,98426.73
2018-09-18T04:34:24.328Z,98422.78
2018-09-18T04:36:53.630Z,98423.08
2018-09-18T04:39:23.104Z,98427.72
2018-09-18T04:41:52.534Z,98426.64
2018-09-18T04:44:22.041Z,98430.48
2018-09-18T04:46:51.543Z,98423.77
2018-09-18T04:49:21.039Z,98421.14
2018-09-18T04:51:50.453Z,98421.77
2018-09-18T04:54:19.851Z,98427.95
2018-09-18T04:56:49.253Z,98426.14
2018-09-18T04:59:18.859Z,98425.25
2018-09-18T05:01:48.262Z,98427.95
2018-09-18T05:04:17.662Z,98426.57
2018-09-18T05:06:47.065Z,98423.64
2018-09-18T05:09:16.532Z,98423.80
2018-09-18T05:11:46.111Z,98424.23
2018-09-18T05:14:15.649Z,98427.36
2018-09-18T05:16:45.338Z,98420.12
2018-09-18T05:19:14.893Z,98429.17
2018-09-18T05:21:44.706Z,98425.25
2018-09-18T05:24:14.208Z,98426.93
2018-09-18T05:26:43.816Z,98425.31
2018-09-18T05:29:13.628Z,98424.91
2018-09-18T05:31:43.031Z,98420.21
2018-09-18T05:34:12.433Z,98428.25
2018-09-18T05:36:41.935Z,98423.44
2018-09-18T05:39:12.453Z,98424.00
2018-09-18T05:41:41.795Z,98425.42
2018-09-18T05:44:16.803Z,98424.36
2018-09-18T05:46:46.321Z,98433.22
2018-09-18T05:49:15.910Z,98425.48
2018-09-18T05:51:45.516Z,98425.35
2018-09-18T05:54:14.817Z,98421.33
2018-09-18T05:56:44.726Z,98419.00
2018-09-18T05:59:14.027Z,98419.36
2018-09-18T06:01:43.431Z,98422.05
2018-09-18T06:04:12.931Z,98423.14
2018-09-18T06:06:42.339Z,98423.34
2018-09-18T06:09:12.761Z,98425.16
2018-09-18T06:11:42.140Z,98425.61
2018-09-18T06:14:11.811Z,98429.70
2018-09-18T06:16:41.279Z,98430.41
2018-09-18T06:19:10.708Z,98426.95
2018-09-18T06:21:40.078Z,98422.98
2018-09-18T06:24:09.594Z,98414.15
2018-09-18T06:26:39.086Z,98418.54
2018-09-18T06:29:08.692Z,98416.87
2018-09-18T06:31:38.095Z,98411.67
2018-09-18T06:34:07.700Z,98417.39
2018-09-18T06:36:37.205Z,98423.64
2018-09-18T06:39:08.852Z,98419.33
2018-09-18T06:41:38.569Z,98420.35
2018-09-18T06:44:08.074Z,98417.11
2018-09-18T06:46:37.782Z,98423.43
2018-09-18T06:49:07.287Z,98417.95
2018-09-18T06:51:36.790Z,98414.29
2018-09-18T06:54:06.126Z,98414.70
2018-09-18T06:56:35.697Z,98418.23
2018-09-18T06:59:05.304Z,98421.56
2018-09-18T07:01:34.811Z,98425.14
2018-09-18T07:04:04.210Z,98420.80
2018-09-18T07:06:33.624Z,98416.09
2018-09-18T07:09:03.127Z,98413.84
2018-09-18T07:11:32.519Z,98414.53
2018-09-18T07:14:02.022Z,98412.91
2018-09-18T07:16:31.424Z,98418.81
2018-09-18T07:19:00.990Z,98407.20
2018-09-18T07:21:30.433Z,98407.94
2018-09-18T07:23:59.951Z,98414.06
2018-09-18T07:26:29.517Z,98407.84
2018-09-18T07:28:58.862Z,98410.20
2018-09-18T07:31:28.243Z,98402.59
2018-09-18T07:33:57.759Z,98405.13
2018-09-18T07:36:27.149Z,98404.37
2018-09-18T07:38:56.758Z,98410.36
2018-09-18T07:41:26.310Z,98407.91
2018-09-18T07:43:55.664Z,98404.53
2018-09-18T07:46:25.079Z,98405.33
2018-09-18T07:48:58.664Z,98400.02
2018-09-18T07:51:28.067Z,98398.18
2018-09-18T07:53:57.776Z,98404.61
2018-09-18T07:56:27.440Z,98404.83
2018-09-18T07:58:56.888Z,98403.11
2018-09-18T08:01:26.291Z,98399.09
2018-09-18T08:03:55.999Z,98393.30
2018-09-18T08:06:25.809Z,98390.27
2018-09-18T08:08:55.322Z,98386.83
2018-09-18T08:11:24.716Z,98380.73
2018-09-18T08:13:54.120Z,98382.31
2018-09-18T08:16:23.519Z,98384.23
2018-09-18T08:18:52.997Z,98385.98
2018-09-18T08:21:22.326Z,98390.50
2018-09-18T08:23:51.739Z,98386.91
2018-09-18T08:26:21.193Z,98383.33
2018-09-18T08:28:50.633Z,98385.39
2018-09-18T08:31:20.363Z,98385.30
2018-09-18T08:33:49.847Z,98388.61
2018-09-18T08:36:19.301Z,98389.64
2018-09-18T08:38:48.956Z,98379.23
2018-09-18T08:41:18.466Z,98380.30
2018-09-18T08:43:48.171Z,98382.34
2018-09-18T08:46:17.851Z,98383.26
2018-09-18T08:48:52.687Z,98374.70
2018-09-18T08:51:22.008Z,98373.75
2018-09-18T08:53:51.667Z,98374.65
2018-09-18T08:56:21.034Z,98371.92
2018-09-18T08:58:50.853Z,98370.20
2018-09-18T09:01:20.536Z,98366.53
2018-09-18T09:03:50.191Z,98372.36
2018-09-18T09:06:19.867Z,98366.42
2018-09-18T09:08:49.264Z,98368.01
2018-09-18T09:11:18.710Z,98367.77
2018-09-18T09:13:48.384Z,98364.05
2018-09-18T09:16:17.763Z,98364.89
2018-09-18T09:18:47.196Z,98358.64
2018-09-18T09:21:16.684Z,98353.78
2018-09-18T09:23:45.869Z,98352.67
2018-09-18T09:26:15.408Z,98353.70
2018-09-18T09:28:44.999Z,98350.84
2018-09-18T09:31:14.490Z,98349.34
2018-09-18T09:33:44.021Z,98342.56
2018-09-18T09:36:13.472Z,98340.66
2018-09-18T09:38:43.108Z,98346.40
2018-09-18T09:41:12.708Z,98345.66
2018-09-18T09:43:42.335Z,98344.58
2018-09-18T09:46:11.868Z,98344.30
2018-09-18T09:48:41.219Z,98347.11
2018-09-18T09:51:10.801Z,98337.91
2018-09-18T09:53:40.333Z,98340.97
2018-09-18T09:56:09.632Z,98336.25
2018-09-18T09:58:39.032Z,98334.50
2018-09-18T10:01:13.875Z,98333.05
2018-09-18T10:03:43.265Z,98330.24
2018-09-18T10:06:12.872Z,98325.45
2018-09-18T10:08:42.376Z,98320.02
2018-09-18T10:11:11.779Z,98315.03
2018-09-18T10:13:41.202Z,98312.28
2018-09-18T10:16:10.670Z,98307.67
2018-09-18T10:18:40.014Z,98313.09
2018-09-18T10:21:09.475Z,98307.39
2018-09-18T10:23:38.893Z,98306.87
2018-09-18T10:26:08.401Z,98306.05
2018-09-18T10:28:37.797Z,98306.77
2018-09-18T10:31:07.323Z,98304.59
2018-09-18T10:33:36.907Z,98299.26
2018-09-18T10:36:06.573Z,98306.95
2018-09-18T10:38:35.924Z,98296.80
2018-09-18T10:41:05.596Z,98306.73
2018-09-18T10:43:35.032Z,98298.23
2018-09-18T10:46:04.532Z,98301.22
2018-09-18T10:48:38.240Z,98297.77
2018-09-18T10:51:07.643Z,98299.77
2018-09-18T10:53:37.244Z,98294.62
2018-09-18T10:56:06.748Z,98291.09
2018-09-18T10:58:36.151Z,98293.17
2018-09-18T11:01:05.757Z,98287.89
2018-09-18T11:03:35.162Z,98284.14
2018-09-18T11:06:05.585Z,98281.72
2018-09-18T11:08:35.601Z,98277.30
2018-09-18T11:11:05.177Z,98270.66
2018-09-18T11:13:34.658Z,98273.72
2018-09-18T11:16:04.404Z,98273.70
2018-09-18T11:18:33.639Z,98273.45
2018-09-18T11:21:03.143Z,98277.67
2018-09-18T11:23:32.708Z,98272.08
2018-09-18T11:26:02.132Z,98261.61
2018-09-18T11:28:31.643Z,98268.14
2018-09-18T11:31:01.037Z,98265.67
2018-09-18T11:33:30.336Z,98264.26
2018-09-18T11:35:59.738Z,98256.73
2018-09-18T11:38:29.038Z,98245.17
2018-09-18T11:40:58.443Z,98242.71
2018-09-18T11:43:27.953Z,98237.66
2018-09-18T11:45:57.753Z,98237.00
2018-09-18T11:48:26.958Z,98234.94
2018-09-18T11:50:56.363Z,98236.60
2018-09-18T11:53:25.980Z,98236.20
2018-09-18T11:55:55.390Z,98244.90
2018-09-18T11:58:25.021Z,98240.63
2018-09-18T12:00:54.540Z,98225.52
2018-09-18T12:03:23.878Z,98229.48
2018-09-18T12:05:53.294Z,98230.34
2018-09-18T12:08:22.682Z,98222.27
2018-09-18T12:10:52.083Z,98222.58
2018-09-18T12:13:21.487Z,98217.27
2018-09-18T12:15:50.784Z,98216.25
2018-09-18T12:18:20.191Z,98224.15
2018-09-18T12:20:49.590Z,98219.05
2018-09-18T12:23:18.991Z,98209.20
2018-09-18T12:25:48.395Z,98202.40
2018-09-18T12:28:17.780Z,98204.56
2018-09-18T12:30:47.303Z,98202.13
2018-09-18T12:33:16.703Z,98203.65
2018-09-18T12:35:46.244Z,98200.66
2018-09-18T12:38:15.714Z,98193.38
2018-09-18T12:40:45.231Z,98198.14
2018-09-18T12:43:14.619Z,98190.80
2018-09-18T12:45:44.329Z,98192.64
2018-09-18T12:48:13.834Z,98185.61
2018-09-18T12:50:43.451Z,98188.88
2018-09-18T12:53:12.943Z,98185.02
2018-09-18T12:55:42.343Z,98186.29
2018-09-18T12:58:11.755Z,98181.55
2018-09-18T13:00:41.257Z,98181.69
2018-09-18T13:03:10.756Z,98181.93
2018-09-18T13:05:40.261Z,98174.91
2018-09-18T13:08:09.760Z,98170.36
2018-09-18T13:10:39.168Z,98170.41
2018-09-18T13:13:08.470Z,98167.65
2018-09-18T13:15:37.878Z,98168.07
2018-09-18T13:18:07.223Z,98166.20
2018-09-18T13:20:36.798Z,98162.78
2018-09-18T13:23:06.467Z,98163.31
2018-09-18T13:25:35.888Z,98156.66
2018-09-18T13:28:05.291Z,98156.72
2018-09-18T13:30:34.843Z,98157.91
2018-09-18T13:33:04.298Z,98160.55
2018-09-18T13:35:33.802Z,98155.94
2018-09-18T13:38:03.410Z,98153.91
2018-09-18T13:40:32.807Z,98146.65
2018-09-18T13:43:02.316Z,98142.83
2018-09-18T13:45:31.823Z,98140.33
2018-09-18T13:48:01.431Z,98146.63
2018-09-18T13:50:31.018Z,98139.52
2018-09-18T13:53:00.538Z,98146.13
2018-09-18T13:55:29.972Z,98145.62
2018-09-18T13:57:59.382Z,98148.11
2018-09-18T14:00:28.858Z,98143.95
2018-09-18T14:02:58.748Z,98134.83
2018-09-18T14:05:28.271Z,98132.56
2018-09-18T14:07:57.770Z,98142.45
2018-09-18T14:10:27.388Z,98134.67
2018-09-18T14:12:56.953Z,98130.95
2018-09-18T14:15:26.620Z,98138.63
2018-09-18T14:17:55.993Z,98132.05
2018-09-18T14:20:26.783Z,98131.20
2018-09-18T14:22:56.127Z,98132.00
2018-09-18T14:25:25.531Z,98128.84
2018-09-18T14:27:54.828Z,98129.00
2018-09-18T14:30:24.334Z,98121.91
2018-09-18T14:32:53.736Z,98122.35
2018-09-18T14:35:23.548Z,98125.34
2018-09-18T14:37:53.383Z,98122.92
2018-09-18T14:40:22.822Z,98125.16
2018-09-18T14:42:52.164Z,98123.39
2018-09-18T14:45:21.502Z,98123.05
2018-09-18T14:47:50.915Z,98124.64
2018-09-18T14:50:20.282Z,98125.78
2018-09-18T14:52:49.669Z,98123.20
2018-09-18T14:55:18.967Z,98129.67
2018-09-18T14:57:48.369Z,98121.53
2018-09-18T15:00:17.815Z,98124.06
2018-09-18T15:02:47.276Z,98125.34
2018-09-18T15:05:16.677Z,98129.94
2018-09-18T15:07:46.080Z,98121.59
2018-09-18T15:10:15.649Z,98122.58
2018-09-18T15:12:45.164Z,98124.02
2018-09-18T15:15:14.682Z,98127.01
2018-09-18T15:17:43.996Z,98123.84
2018-09-18T15:20:13.502Z,98125.77
2018-09-18T15:22:43.006Z,98129.38
2018-09-18T15:25:12.531Z,98125.73
2018-09-18T15:27:41.971Z,98122.64
2018-09-18T15:30:11.418Z,98127.63
2018-09-18T15:32:40.861Z,98121.78
2018-09-18T15:35:10.247Z,98126.86
2018-09-18T15:37:39.624Z,98125.27
2018-09-18T15:40:09.320Z,98123.80
2018-09-18T15:42:38.737Z,98121.34
2018-09-18T15:45:08.137Z,98119.20
2018-09-18T15:47:37.541Z,98122.93
2018-09-18T15:50:07.247Z,98121.49
2018-09-18T15:52:36.648Z,98123.45
2018-09-18T15:55:06.153Z,98125.73
2018-09-18T15:57:35.467Z,98126.83
2018-09-18T16:00:05.061Z,98118.67
2018-09-18T16:02:34.567Z,98114.84
2018-09-18T16:05:04.173Z,98114.12
2018-09-18T16:07:33.580Z,98118.53
2018-09-18T16:10:03.081Z,98126.75
2018-09-18T16:12:32.581Z,98121.20
2018-09-18T16:15:01.996Z,98118.09
2018-09-18T16:17:31.517Z,98116.49
2018-09-18T16:20:01.201Z,98122.84
2018-09-18T16:22:30.652Z,98126.56
2018-09-18T16:25:00.108Z,98126.34
2018-09-18T16:27:29.680Z,98131.95
2018-09-18T16:29:59.117Z,98131.70
2018-09-18T16:32:28.818Z,98129.61
2018-09-18T16:34:58.234Z,98135.91
2018-09-18T16:37:27.748Z,98129.09
2018-09-18T16:39:57.515Z,98134.87
2018-09-18T16:42:26.992Z,98135.95
2018-09-18T16:44:56.450Z,98136.77
2018-09-18T16:47:25.955Z,98136.39
2018-09-18T16:49:55.666Z,98139.02
2018-09-18T16:52:25.067Z,98141.38
2018-09-18T16:54:54.654Z,98137.05
2018-09-18T16:57:24.072Z,98138.08
2018-09-18T16:59:53.428Z,98136.17
2018-09-18T17:02:23.017Z,98133.98
2018-09-18T17:04:52.484Z,98134.70
2018-09-18T17:07:21.787Z,98132.34
2018-09-18T17:09:51.293Z,98138.66
2018-09-18T17:12:21.072Z,98140.56
2018-09-18T17:14:50.508Z,98147.83
2018-09-18T17:17:20.223Z,98151.78
2018-09-18T17:19:49.831Z,98150.53
2018-09-18T17:22:19.233Z,98153.12
2018-09-18T17:24:49.679Z,98155.32
2018-09-18T17:27:19.356Z,98152.27
2018-09-18T17:29:48.956Z,98145.98
2018-09-18T17:32:18.775Z,98153.09
2018-09-18T17:34:48.482Z,98155.03
2018-09-18T17:37:18.059Z,98152.88
2018-09-18T17:39:47.718Z,98158.36
2018-09-18T17:42:17.465Z,98160.66
2018-09-18T17:44:47.217Z,98158.75
2018-09-18T17:47:16.550Z,98166.56
2018-09-18T17:49:45.923Z,98169.98
2018-09-18T17:52:15.734Z,98174.84
2018-09-18T17:54:45.252Z,98186.87
2018-09-18T17:57:14.845Z,98185.66
2018-09-18T17:59:44.521Z,98189.45
2018-09-18T18:02:15.185Z,98190.36
2018-09-18T18:04:44.803Z,98193.90
2018-09-18T18:07:14.296Z,98199.89
2018-09-18T18:09:45.110Z,98199.15
2018-09-18T18:12:14.635Z,98201.35
2018-09-18T18:14:44.148Z,98200.09
2018-09-18T18:17:13.542Z,98202.80
2018-09-18T18:19:43.046Z,98206.29
2018-09-18T18:22:12.671Z,98206.33
2018-09-18T18:24:42.159Z,98220.06
2018-09-18T18:27:11.765Z,98219.03
2018-09-18T18:29:41.342Z,98223.36
2018-09-18T18:32:10.982Z,98229.27
2018-09-18T18:34:41.115Z,98223.09
2018-09-18T18:37:11.031Z,98223.91
2018-09-18T18:39:40.684Z,98234.14
2018-09-18T18:42:10.125Z,98233.60
2018-09-18T18:44:39.731Z,98233.84
2018-09-18T18:47:09.261Z,98241.94
2018-09-18T18:49:39.645Z,98248.12
2018-09-18T18:52:09.168Z,98244.88
2018-09-18T18:54:38.824Z,98251.59
2018-09-18T18:57:08.275Z,98251.86
2018-09-18T18:59:37.884Z,98253.75
2018-09-18T19:02:07.551Z,98256.70
2018-09-18T19:04:37.091Z,98268.01
2018-09-18T19:07:06.655Z,98270.42
2018-09-18T19:09:36.309Z,98269.34
2018-09-18T19:12:05.928Z,98268.81
2018-09-18T19:14:35.272Z,98269.35
2018-09-18T19:17:04.738Z,98266.67
2018-09-18T19:19:34.327Z,98272.58
2018-09-18T19:22:03.954Z,98279.02
2018-09-18T19:24:33.801Z,98278.49
2018-09-18T19:27:03.454Z,98287.37
2018-09-18T19:29:32.905Z,98281.69
2018-09-18T19:32:02.166Z,98280.61
2018-09-18T19:34:31.518Z,98278.98
2018-09-18T19:37:01.065Z,98281.64
2018-09-18T19:39:30.727Z,98284.33
2018-09-18T19:42:00.169Z,98287.02
2018-09-18T19:44:29.786Z,98283.52
2018-09-18T19:47:00.387Z,98290.77
2018-09-18T19:49:29.935Z,98296.36
2018-09-18T19:51:59.423Z,98303.15
2018-09-18T19:54:28.925Z,98304.43
2018-09-18T19:56:58.533Z,98314.65
2018-09-18T19:59:27.991Z,98316.59
2018-09-18T20:01:57.439Z,98316.41
2018-09-18T20:04:26.883Z,98323.98
2018-09-18T20:06:56.450Z,98316.28
2018-09-18T20:09:26.190Z,98321.66
2018-09-18T20:11:55.562Z,98325.52
2018-09-18T20:14:25.064Z,98324.46
2018-09-18T20:16:54.467Z,98322.59
2018-09-18T20:19:24.074Z,98320.95
2018-09-18T20:21:53.596Z,98316.14
2018-09-18T20:24:23.184Z,98320.98
2018-09-18T20:26:52.595Z,98320.75
2018-09-18T20:29:22.160Z,98314.23
2018-09-18T20:31:51.756Z,98316.41
2018-09-18T20:34:21.202Z,98310.71
2018-09-18T20:36:50.610Z,98318.50
2018-09-18T20:39:20.009Z,98309.62
2018-09-18T20:41:49.468Z,98310.93
2018-09-18T20:44:18.913Z,98310.62
2018-09-18T20:46:48.314Z,98311.11
2018-09-18T20:49:18.049Z,98316.34
2018-09-18T20:51:47.629Z,98320.38
2018-09-18T20:54:17.136Z,98318.16
2018-09-18T20:56:46.639Z,98317.87
2018-09-18T20:59:16.147Z,98319.17
2018-09-18T21:01:45.669Z,98325.34
2018-09-18T21:04:15.154Z,98337.95
2018-09-18T21:06:44.578Z,98335.39
2018-09-18T21:09:14.367Z,98335.94
2018-09-18T21:11:43.870Z,98343.30
2018-09-18T21:14:13.461Z,98338.67
2018-09-18T21:16:43.817Z,98339.04
2018-09-18T21:19:13.206Z,98342.95
2018-09-18T21:21:42.709Z,98347.14
2018-09-18T21:24:12.212Z,98344.08
2018-09-18T21:26:41.716Z,98344.30
2018-09-18T21:29:11.223Z,98351.48
2018-09-18T21:31:40.636Z,98349.77
2018-09-18T21:34:10.269Z,98347.90
2018-09-18T21:36:39.834Z,98343.96
2018-09-18T21:39:10.558Z,98345.52
2018-09-18T21:41:40.074Z,98347.14
2018-09-18T21:44:09.473Z,98342.31
2018-09-18T21:46:38.879Z,98347.72
2018-09-18T21:49:08.461Z,98350.03
2018-09-18T21:51:38.097Z,98353.80
2018-09-18T21:54:07.596Z,98352.22
2018-09-18T21:56:37.101Z,98355.50
2018-09-18T21:59:06.709Z,98356.34
2018-09-18T22:01:36.472Z,98359.31
2018-09-18T22:04:05.920Z,98367.02
2018-09-18T22:06:35.429Z,98360.83
2018-09-18T22:09:05.258Z,98369.36
2018-09-18T22:11:34.742Z,98370.98
2018-09-18T22:14:04.245Z,98371.31
2018-09-18T22:16:33.855Z,98373.73
2018-09-18T22:19:03.264Z,98372.59
2018-09-18T22:21:32.862Z,98376.11
2018-09-18T22:24:02.573Z,98369.51
2018-09-18T22:26:32.178Z,98374.11
2018-09-18T22:29:01.785Z,98382.66
2018-09-18T22:31:31.287Z,98385.48
2018-09-18T22:34:00.793Z,98384.14
2018-09-18T22:36:30.610Z,98386.77
2018-09-18T22:39:00.072Z,98383.67
2018-09-18T22:41:29.718Z,98379.66
2018-09-18T22:43:59.323Z,98380.00
2018-09-18T22:46:28.821Z,98376.75
2018-09-18T22:48:58.437Z,98382.06
2018-09-18T22:51:28.371Z,98390.25
2018-09-18T22:53:57.963Z,98389.20
2018-09-18T22:56:27.739Z,98390.77
2018-09-18T22:58:57.179Z,98391.71
2018-09-18T23:01:26.577Z,98391.63
2018-09-18T23:03:57.100Z,98398.00
2018-09-18T23:06:26.708Z,98398.14
2018-09-18T23:08:56.106Z,98394.07
2018-09-18T23:11:25.716Z,98396.59
2018-09-18T23:13:55.323Z,98403.03
2018-09-18T23:16:24.829Z,98406.78
2018-09-18T23:18:54.379Z,98403.05
2018-09-18T23:21:23.735Z,98393.04
2018-09-18T23:23:53.341Z,98400.05
2018-09-18T23:26:22.948Z,98397.58
2018-09-18T23:28:52.450Z,98399.56
2018-09-18T23:31:21.919Z,98395.00
2018-09-18T23:33:51.151Z,98401.95
2018-09-18T23:36:20.739Z,98403.45
2018-09-18T23:38:50.161Z,98403.66
2018-09-18T23:41:19.664Z,98413.25
2018-09-18T23:43:49.125Z,98417.98
2018-09-18T23:46:18.574Z,98410.44
2018-09-18T23:48:48.174Z,98413.09
2018-09-18T23:51:17.786Z,98406.73
2018-09-18T23:53:47.177Z,98409.94
2018-09-18T23:56:16.796Z,98410.88
2018-09-18T23:58:46.402Z,98416.63
